createdAt,value
2023-03-07T00:00:33.704Z,22.60
2023-03-07T00:03:37.049Z,23.83
2023-03-07T00:06:39.194Z,24.13
2023-03-07T00:09:41.544Z,24.35
2023-03-07T00:12:43.829Z,24.10
2023-03-07T00:15:45.816Z,26.08
2023-03-07T00:18:48.531Z,27.13
2023-03-07T00:21:50.638Z,25.53
2023-03-07T00:24:52.718Z,25.88
2023-03-07T00:27:54.930Z,28.48
2023-03-07T00:31:01.140Z,12.70
2023-03-07T00:34:05.497Z,18.85
2023-03-07T00:37:07.595Z,21.57
2023-03-07T00:40:10.395Z,24.80
2023-03-07T00:43:12.442Z,25.10
2023-03-07T00:46:16.445Z,22.77
2023-03-07T00:49:20.514Z,24.73
2023-03-07T00:52:22.557Z,25.77
2023-03-07T00:55:24.517Z,27.27
2023-03-07T00:58:32.626Z,28.80
2023-03-07T01:01:34.674Z,14.15
2023-03-07T01:04:36.877Z,24.55
2023-03-07T01:07:38.920Z,25.37
2023-03-07T01:10:41.326Z,26.10
2023-03-07T01:13:43.868Z,27.62
2023-03-07T01:16:46.021Z,26.62
2023-03-07T01:19:48.164Z,25.85
2023-03-07T01:22:50.228Z,25.77
2023-03-07T01:25:52.284Z,18.35
2023-03-07T01:28:56.626Z,25.70
2023-03-07T01:31:58.997Z,25.50
2023-03-07T01:35:01.137Z,21.33
2023-03-07T01:38:03.903Z,25.73
2023-03-07T01:41:05.998Z,25.75
2023-03-07T01:44:17.872Z,28.42
2023-03-07T01:47:19.910Z,25.65
2023-03-07T01:50:22.165Z,24.90
2023-03-07T01:53:24.216Z,26.23
2023-03-07T01:56:26.607Z,27.37
2023-03-07T01:59:42.675Z,24.87
2023-03-07T02:02:49.783Z,22.40
2023-03-07T02:06:01.938Z,23.77
2023-03-07T02:09:12.378Z,26.23
2023-03-07T02:12:14.916Z,22.05
2023-03-07T02:15:17.112Z,25.40
2023-03-07T02:18:24.493Z,24.87
2023-03-07T02:21:49.070Z,22.15
2023-03-07T02:25:01.548Z,26.23
2023-03-07T02:28:04.614Z,26.70
2023-03-07T02:31:07.566Z,25.02
2023-03-07T02:34:30.213Z,24.77
2023-03-07T02:37:37.240Z,23.98
2023-03-07T02:40:40.239Z,35.23
2023-03-07T02:43:42.277Z,28.10
2023-03-07T02:46:44.393Z,26.05
2023-03-07T02:49:46.412Z,29.48
2023-03-07T02:52:49.827Z,25.40
2023-03-07T02:55:51.840Z,27.90
2023-03-07T02:58:54.032Z,24.65
2023-03-07T03:01:57.862Z,40.10
2023-03-07T03:04:59.915Z,59.33
2023-03-07T03:08:02.033Z,61.37
2023-03-07T03:11:04.169Z,46.50
2023-03-07T03:14:06.623Z,28.85
2023-03-07T03:17:08.579Z,27.52
2023-03-07T03:20:12.900Z,27.10
2023-03-07T03:23:14.978Z,23.33
2023-03-07T03:26:17.230Z,31.80
2023-03-07T03:29:19.608Z,26.65
2023-03-07T03:32:22.038Z,28.17
2023-03-07T03:35:24.158Z,26.17
2023-03-07T03:38:26.944Z,26.25
2023-03-07T03:41:28.961Z,29.00
2023-03-07T03:44:31.082Z,26.58
2023-03-07T03:47:33.133Z,28.15
2023-03-07T03:50:35.799Z,25.90
2023-03-07T03:53:39.745Z,24.85
2023-03-07T03:56:41.769Z,17.97
2023-03-07T03:59:44.115Z,18.85
2023-03-07T04:02:47.228Z,22.20
2023-03-07T04:05:49.342Z,24.87
2023-03-07T04:08:52.436Z,17.98
2023-03-07T04:11:54.416Z,17.03
2023-03-07T04:14:56.923Z,20.23
2023-03-07T04:17:58.976Z,25.85
2023-03-07T04:21:01.557Z,17.62
2023-03-07T04:24:03.852Z,17.37
2023-03-07T04:27:07.479Z,21.20
2023-03-07T04:30:10.231Z,19.77
2023-03-07T04:33:12.944Z,19.45
2023-03-07T04:36:18.409Z,16.45
2023-03-07T04:39:20.527Z,19.95
2023-03-07T04:42:22.737Z,15.77
2023-03-07T04:45:24.872Z,18.23
2023-03-07T04:48:26.865Z,19.95
2023-03-07T04:51:29.932Z,25.27
2023-03-07T04:54:32.003Z,23.65
2023-03-07T04:57:34.349Z,21.73
2023-03-07T05:00:36.376Z,25.52
2023-03-07T05:03:38.477Z,25.77
2023-03-07T05:06:40.686Z,22.83
2023-03-07T05:09:42.704Z,10.82
2023-03-07T05:12:45.016Z,22.80
2023-03-07T05:15:57.693Z,19.77
2023-03-07T05:19:00.957Z,15.45
2023-03-07T05:22:03.466Z,19.45
2023-03-07T05:25:06.532Z,19.75
2023-03-07T05:28:08.849Z,16.17
2023-03-07T05:31:10.859Z,21.85
2023-03-07T05:34:13.311Z,18.98
2023-03-07T05:37:15.304Z,18.37
2023-03-07T05:40:18.436Z,23.25
2023-03-07T05:43:20.558Z,19.30
2023-03-07T05:46:22.661Z,25.25
2023-03-07T05:49:25.164Z,20.73
2023-03-07T05:52:29.053Z,23.15
2023-03-07T05:55:31.021Z,22.70
2023-03-07T05:58:33.116Z,20.17
2023-03-07T06:01:35.516Z,22.67
2023-03-07T06:04:37.575Z,19.08
2023-03-07T06:07:39.678Z,19.87
2023-03-07T06:10:43.194Z,13.35
2023-03-07T06:13:45.926Z,24.53
2023-03-07T06:16:47.995Z,13.75
2023-03-07T06:19:50.796Z,15.85
2023-03-07T06:22:52.846Z,16.12
2023-03-07T06:25:54.965Z,18.23
2023-03-07T06:28:57.134Z,14.90
2023-03-07T06:31:59.899Z,24.58
2023-03-07T06:35:01.956Z,21.48
2023-03-07T06:38:05.078Z,25.62
2023-03-07T06:41:07.655Z,10.40
2023-03-07T06:44:11.058Z,13.23
2023-03-07T06:47:13.097Z,26.85
2023-03-07T06:50:17.609Z,19.58
2023-03-07T06:53:21.464Z,24.83
2023-03-07T06:56:23.507Z,17.98
2023-03-07T06:59:25.779Z,23.37
2023-03-07T07:02:27.915Z,18.95
2023-03-07T07:05:30.082Z,17.02
2023-03-07T07:08:32.298Z,21.62
2023-03-07T07:11:34.979Z,24.05
2023-03-07T07:14:37.359Z,24.43
2023-03-07T07:17:39.324Z,30.37
2023-03-07T07:20:41.599Z,20.58
2023-03-07T07:23:43.777Z,25.83
2023-03-07T07:26:45.958Z,18.83
2023-03-07T07:29:48.090Z,34.80
2023-03-07T07:32:50.786Z,23.25
2023-03-07T07:35:53.337Z,20.23
2023-03-07T07:38:55.469Z,22.90
2023-03-07T07:41:57.602Z,22.33
2023-03-07T07:44:59.696Z,25.20
2023-03-07T07:48:01.737Z,19.83
2023-03-07T07:51:04.890Z,24.98
2023-03-07T07:54:09.068Z,25.27
2023-03-07T07:57:11.189Z,24.23
2023-03-07T08:00:14.329Z,15.27
2023-03-07T08:03:16.596Z,26.05
2023-03-07T08:06:24.874Z,22.60
2023-03-07T08:09:27.007Z,23.27
2023-03-07T08:12:29.020Z,23.30
2023-03-07T08:15:31.096Z,26.00
2023-03-07T08:18:34.607Z,29.48
2023-03-07T08:21:36.919Z,22.02
2023-03-07T08:24:41.103Z,24.87
2023-03-07T08:27:43.315Z,23.75
2023-03-07T08:30:45.457Z,21.70
2023-03-07T08:33:47.878Z,24.10
2023-03-07T08:36:49.957Z,16.98
2023-03-07T08:39:52.235Z,16.17
2023-03-07T08:42:55.347Z,21.77
2023-03-07T08:45:58.510Z,13.80
2023-03-07T08:49:00.695Z,12.90
2023-03-07T08:52:03.205Z,17.48
2023-03-07T08:55:05.847Z,23.15
2023-03-07T08:58:07.972Z,24.42
2023-03-07T09:01:10.405Z,24.03
2023-03-07T09:04:12.462Z,23.45
2023-03-07T09:07:14.516Z,17.75
2023-03-07T09:10:19.415Z,20.30
2023-03-07T09:13:21.718Z,24.65
2023-03-07T09:16:24.022Z,13.13
2023-03-07T09:19:26.500Z,11.90
2023-03-07T09:22:28.590Z,21.70
2023-03-07T09:25:31.472Z,22.48
2023-03-07T09:28:33.611Z,24.17
2023-03-07T09:31:35.801Z,21.37
2023-03-07T09:34:38.049Z,20.65
2023-03-07T09:37:40.023Z,19.98
2023-03-07T09:40:47.168Z,10.57
2023-03-07T09:44:13.186Z,25.92
2023-03-07T09:47:33.722Z,23.33
2023-03-07T09:50:55.306Z,24.10
2023-03-07T09:54:03.059Z,23.60
2023-03-07T09:57:07.119Z,24.25
2023-03-07T10:00:48.219Z,24.37
2023-03-07T10:03:56.053Z,21.23
2023-03-07T10:06:59.967Z,25.88
2023-03-07T10:10:11.144Z,20.83
2023-03-07T10:13:16.821Z,22.23
2023-03-07T10:16:43.088Z,25.40
2023-03-07T10:19:51.474Z,21.83
2023-03-07T10:23:01.980Z,19.58
2023-03-07T10:26:13.081Z,24.67
2023-03-07T10:29:19.533Z,18.80
2023-03-07T10:32:41.719Z,19.12
2023-03-07T10:35:48.998Z,24.73
2023-03-07T10:39:12.223Z,16.80
2023-03-07T10:42:17.084Z,20.67
2023-03-07T10:45:19.383Z,23.42
2023-03-07T10:48:22.338Z,23.50
2023-03-07T10:51:43.900Z,24.70
2023-03-07T10:54:45.889Z,18.60
2023-03-07T10:57:47.911Z,23.67
2023-03-07T11:01:01.275Z,26.52
2023-03-07T11:04:05.288Z,22.50
2023-03-07T11:07:31.072Z,21.67
2023-03-07T11:10:39.641Z,20.02
2023-03-07T11:13:41.888Z,20.17
2023-03-07T11:17:01.439Z,18.95
2023-03-07T11:20:06.786Z,29.23
2023-03-07T11:23:23.479Z,27.07
2023-03-07T11:26:25.566Z,25.50
2023-03-07T11:29:33.742Z,22.85
2023-03-07T11:32:40.366Z,26.25
2023-03-07T11:36:02.696Z,19.75
2023-03-07T11:39:08.241Z,19.20
2023-03-07T11:42:22.650Z,23.33
2023-03-07T11:46:01.707Z,19.55
2023-03-07T11:49:22.678Z,21.77
2023-03-07T11:53:02.281Z,22.83
2023-03-07T11:56:25.912Z,26.93
2023-03-07T11:59:51.339Z,19.42
2023-03-07T12:03:25.036Z,22.08
2023-03-07T12:07:18.297Z,21.12
2023-03-07T12:10:36.121Z,22.60
2023-03-07T12:13:49.990Z,24.77
2023-03-07T12:17:10.717Z,28.23
2023-03-07T12:20:48.236Z,18.17
2023-03-07T12:23:58.490Z,16.25
2023-03-07T12:27:16.721Z,20.80
2023-03-07T12:30:25.397Z,20.23
2023-03-07T12:33:40.525Z,19.95
2023-03-07T12:36:56.576Z,19.98
2023-03-07T12:40:21.439Z,19.10
2023-03-07T12:43:37.861Z,21.23
2023-03-07T12:46:54.327Z,20.30
2023-03-07T12:50:05.337Z,22.87
2023-03-07T12:53:07.429Z,19.02
2023-03-07T12:56:20.274Z,21.85
2023-03-07T12:59:23.556Z,17.25
2023-03-07T13:02:41.599Z,22.33
2023-03-07T13:05:44.861Z,19.77
2023-03-07T13:08:50.033Z,21.35
2023-03-07T13:12:16.207Z,20.40
2023-03-07T13:15:18.215Z,22.48
2023-03-07T13:18:29.524Z,23.80
2023-03-07T13:21:33.280Z,24.35
2023-03-07T13:24:38.443Z,19.30
2023-03-07T13:27:40.407Z,20.37
2023-03-07T13:31:11.460Z,20.67
2023-03-07T13:34:46.559Z,16.57
2023-03-07T13:37:50.124Z,21.25
2023-03-07T13:40:55.171Z,20.02
2023-03-07T13:44:00.003Z,19.70
2023-03-07T13:47:02.853Z,20.27
2023-03-07T13:50:33.981Z,19.40
2023-03-07T13:53:53.347Z,16.45
2023-03-07T13:56:55.411Z,20.42
2023-03-07T13:59:57.617Z,20.30
2023-03-07T14:03:00.684Z,16.67
2023-03-07T14:06:11.508Z,17.83
2023-03-07T14:09:23.546Z,22.87
2023-03-07T14:13:05.626Z,19.62
2023-03-07T14:16:47.321Z,20.45
2023-03-07T14:20:01.341Z,19.40
2023-03-07T14:23:24.694Z,17.67
2023-03-07T14:26:33.672Z,16.60
2023-03-07T14:29:36.847Z,19.50
2023-03-07T14:32:41.014Z,17.45
2023-03-07T14:35:44.932Z,17.90
2023-03-07T14:38:48.818Z,19.03
2023-03-07T14:42:22.460Z,30.90
2023-03-07T14:46:21.277Z,22.85
2023-03-07T14:49:31.271Z,25.73
2023-03-07T14:52:34.041Z,26.20
2023-03-07T14:55:40.018Z,30.63
2023-03-07T14:58:51.347Z,25.60
2023-03-07T15:01:54.694Z,20.60
2023-03-07T15:04:57.054Z,23.87
2023-03-07T15:07:59.438Z,18.90
2023-03-07T15:11:13.365Z,21.30
2023-03-07T15:14:22.074Z,22.73
2023-03-07T15:17:34.978Z,18.77
2023-03-07T15:20:37.333Z,24.67
2023-03-07T15:23:40.128Z,23.02
2023-03-07T15:26:56.124Z,18.53
2023-03-07T15:30:29.776Z,21.15
2023-03-07T15:33:33.103Z,21.15
2023-03-07T15:36:37.499Z,21.02
2023-03-07T15:39:39.600Z,24.30
2023-03-07T15:42:53.090Z,23.83
2023-03-07T15:46:19.172Z,21.80
2023-03-07T15:49:46.439Z,34.60
2023-03-07T15:52:52.358Z,27.85
2023-03-07T15:56:00.799Z,25.12
2023-03-07T15:59:17.113Z,25.23
2023-03-07T16:02:32.165Z,24.35
2023-03-07T16:05:37.868Z,23.17
2023-03-07T16:08:40.151Z,20.10
2023-03-07T16:11:43.686Z,21.17
2023-03-07T16:14:48.675Z,24.33
2023-03-07T16:17:53.377Z,23.95
2023-03-07T16:20:55.874Z,23.42
2023-03-07T16:23:57.942Z,21.87
2023-03-07T16:27:00.186Z,21.35
2023-03-07T16:30:02.353Z,19.87
2023-03-07T16:33:05.299Z,22.90
2023-03-07T16:36:08.921Z,20.85
2023-03-07T16:39:12.561Z,21.48
2023-03-07T16:42:22.418Z,24.73
2023-03-07T16:45:28.902Z,21.43
2023-03-07T16:48:31.875Z,22.00
2023-03-07T16:51:34.534Z,23.60
2023-03-07T16:54:37.166Z,21.98
2023-03-07T16:57:40.905Z,21.02
2023-03-07T17:00:43.271Z,20.93
2023-03-07T17:03:46.171Z,22.23
2023-03-07T17:06:57.684Z,23.48
2023-03-07T17:10:03.257Z,22.85
2023-03-07T17:13:09.908Z,23.17
2023-03-07T17:16:16.158Z,26.67
2023-03-07T17:19:26.317Z,26.48
2023-03-07T17:22:29.089Z,28.12
2023-03-07T17:25:31.702Z,26.08
2023-03-07T17:28:35.514Z,25.20
2023-03-07T17:31:37.841Z,24.03
2023-03-07T17:34:40.546Z,28.10
2023-03-07T17:37:45.429Z,29.33
2023-03-07T17:40:57.747Z,23.00
2023-03-07T17:44:00.984Z,24.60
2023-03-07T17:47:03.943Z,27.00
2023-03-07T17:50:09.403Z,30.73
2023-03-07T17:53:13.176Z,27.20
2023-03-07T17:56:16.347Z,28.65
2023-03-07T17:59:19.667Z,30.60
2023-03-07T18:02:22.764Z,30.63
2023-03-07T18:05:27.137Z,29.95
2023-03-07T18:08:30.034Z,28.98
2023-03-07T18:11:34.951Z,29.37
2023-03-07T18:14:38.901Z,30.00
2023-03-07T18:17:48.355Z,28.93
2023-03-07T18:20:59.890Z,25.67
2023-03-07T18:24:02.853Z,28.12
2023-03-07T18:27:09.223Z,27.13
2023-03-07T18:30:12.497Z,27.77
2023-03-07T18:33:15.596Z,29.50
2023-03-07T18:36:27.513Z,24.95
2023-03-07T18:39:30.644Z,17.87
2023-03-07T18:42:34.270Z,16.73
2023-03-07T18:45:43.657Z,19.23
2023-03-07T18:48:48.059Z,22.53
2023-03-07T18:51:51.209Z,16.00
2023-03-07T18:54:54.504Z,21.08
2023-03-07T18:57:57.645Z,21.10
2023-03-07T19:01:30.358Z,21.92
2023-03-07T19:04:34.592Z,20.67
2023-03-07T19:07:37.391Z,11.65
2023-03-07T19:10:40.804Z,18.90
2023-03-07T19:13:46.251Z,15.55
2023-03-07T19:16:49.582Z,17.40
2023-03-07T19:19:59.391Z,19.47
2023-03-07T19:23:04.124Z,23.12
2023-03-07T19:26:10.014Z,20.70
2023-03-07T19:29:13.788Z,16.75
2023-03-07T19:32:19.474Z,17.77
2023-03-07T19:35:22.697Z,20.70
2023-03-07T19:38:25.992Z,16.70
2023-03-07T19:41:32.057Z,17.37
2023-03-07T19:44:36.889Z,15.63
2023-03-07T19:47:39.728Z,12.93
2023-03-07T19:50:42.425Z,14.67
2023-03-07T19:53:48.576Z,19.67
2023-03-07T19:56:51.527Z,16.80
2023-03-07T19:59:56.883Z,16.50
2023-03-07T20:03:00.936Z,14.35
2023-03-07T20:06:05.495Z,13.73
2023-03-07T20:09:09.275Z,15.07
2023-03-07T20:12:12.853Z,14.48
2023-03-07T20:15:15.690Z,12.00
2023-03-07T20:18:20.400Z,12.88
2023-03-07T20:21:27.775Z,11.93
2023-03-07T20:24:30.945Z,10.20
2023-03-07T20:27:34.034Z,9.32
2023-03-07T20:30:37.246Z,14.00
2023-03-07T20:33:41.549Z,11.23
2023-03-07T20:36:50.461Z,14.87
2023-03-07T20:39:53.898Z,18.42
2023-03-07T20:42:56.973Z,12.25
2023-03-07T20:46:09.869Z,14.73
2023-03-07T20:49:15.748Z,11.35
2023-03-07T20:52:20.026Z,11.97
2023-03-07T20:55:23.776Z,10.43
2023-03-07T20:58:30.088Z,15.25
2023-03-07T21:01:35.384Z,11.70
2023-03-07T21:04:39.470Z,11.77
2023-03-07T21:07:42.858Z,10.50
2023-03-07T21:10:45.757Z,8.07
2023-03-07T21:13:49.973Z,9.18
2023-03-07T21:16:53.011Z,9.10
2023-03-07T21:19:57.826Z,12.23
2023-03-07T21:23:00.822Z,11.57
2023-03-07T21:26:14.886Z,9.52
2023-03-07T21:29:17.858Z,10.13
2023-03-07T21:32:20.572Z,9.70
2023-03-07T21:35:25.343Z,8.32
2023-03-07T21:38:28.513Z,9.40
2023-03-07T21:41:31.807Z,7.57
2023-03-07T21:44:35.677Z,9.35
2023-03-07T21:47:38.579Z,9.13
2023-03-07T21:50:45.236Z,7.95
2023-03-07T21:53:47.618Z,11.70
2023-03-07T21:56:50.096Z,8.43
2023-03-07T21:59:52.430Z,12.15
2023-03-07T22:02:54.469Z,9.68
2023-03-07T22:05:57.475Z,11.50
2023-03-07T22:09:00.401Z,10.13
2023-03-07T22:12:02.844Z,11.15
2023-03-07T22:15:05.299Z,12.85
2023-03-07T22:18:07.481Z,10.90
2023-03-07T22:21:14.133Z,11.80
2023-03-07T22:24:16.596Z,14.10
2023-03-07T22:27:19.025Z,12.15
2023-03-07T22:30:21.441Z,8.77
2023-03-07T22:33:23.628Z,9.55
2023-03-07T22:36:25.716Z,6.60
2023-03-07T22:39:28.265Z,10.67
2023-03-07T22:42:30.474Z,9.20
2023-03-07T22:45:32.684Z,10.95
2023-03-07T22:48:35.179Z,9.77
2023-03-07T22:51:37.952Z,14.48
2023-03-07T22:54:43.673Z,12.20
2023-03-07T22:57:45.731Z,11.27
2023-03-07T23:00:48.163Z,12.15
2023-03-07T23:03:51.560Z,13.45
2023-03-07T23:06:53.702Z,13.10
2023-03-07T23:09:55.803Z,9.83
2023-03-07T23:12:58.761Z,9.60
2023-03-07T23:16:05.883Z,8.93
2023-03-07T23:19:08.433Z,10.27
2023-03-07T23:22:10.775Z,9.73
2023-03-07T23:25:15.102Z,12.07
2023-03-07T23:28:17.157Z,11.00
2023-03-07T23:31:39.330Z,11.02
2023-03-07T23:34:41.428Z,9.07
2023-03-07T23:37:43.646Z,10.52
2023-03-07T23:40:45.748Z,16.10
2023-03-07T23:43:52.579Z,11.30
2023-03-07T23:46:54.676Z,13.62
2023-03-07T23:49:56.956Z,9.32
2023-03-07T23:52:59.080Z,10.00
2023-03-07T23:56:01.156Z,12.10
2023-03-07T23:59:03.307Z,11.52
